Time;durP1;ratioP1;P1;durP2;ratioP2;P2;SDS_P1;SDS_P2;PMS_P1;PMS_P2;Temp;Humidity;BMP_temperature;BMP_pressure;BME280_temperature;BME280_humidity;BME280_pressure;Samples;Min_cycle;Max_cycle;Signal;HPM_P1;HPM_P2
2024/02/27 00:00:06;;;;;;;;;;;6.90;1.00;;;;;;5019503;28;19913;-83
2024/02/27 00:02:31;;;;;;;;;;;6.90;1.00;;;;;;5019035;28;19920;-82
2024/02/27 00:04:57;;;;;;;;;;;6.80;1.00;;;;;;5015419;28;19918;-83
2024/02/27 00:07:25;;;;;;;;;;;6.80;1.00;;;;;;5016410;28;19960;-82
2024/02/27 00:09:51;;;;;;;;;;;6.80;1.00;;;;;;5004663;28;20011;-84
2024/02/27 00:12:16;;;;;;;;;;;6.80;1.00;;;;;;5017740;28;19963;-84
2024/02/27 00:14:42;;;;;;;;;;;6.80;1.00;;;;;;4998917;28;19968;-82
2024/02/27 00:17:07;;;;;;;;;;;6.70;1.00;;;;;;5017652;28;19917;-84
2024/02/27 00:19:33;;;;;;;;;;;6.70;1.00;;;;;;5001460;28;20299;-84
2024/02/27 00:21:58;;;;;;;;;;;6.70;1.00;;;;;;5001144;28;19913;-84
2024/02/27 00:24:24;;;;;;;;;;;6.70;1.00;;;;;;4994022;28;19914;-82
2024/02/27 00:26:49;;;;;;;;;;;6.70;1.00;;;;;;4996336;28;19918;-82
2024/02/27 00:29:18;;;;;;;;;;;6.70;1.00;;;;;;5015475;28;19920;-83
2024/02/27 00:31:43;;;;;;;;;;;6.70;1.00;;;;;;5019335;28;19917;-83
2024/02/27 00:34:09;;;;;;;;;;;6.70;1.00;;;;;;5011577;28;19920;-83
2024/02/27 00:36:34;;;;;;;;;;;6.70;1.00;;;;;;5017223;28;19920;-85
2024/02/27 00:39:00;;;;;;;;;;;6.70;1.00;;;;;;5023498;28;20358;-84
2024/02/27 00:41:25;;;;;;;;;;;6.70;1.00;;;;;;5023440;28;19913;-84
2024/02/27 00:43:51;;;;;;;;;;;6.70;1.00;;;;;;5006509;28;19913;-85
2024/02/27 00:46:16;;;;;;;;;;;6.80;1.00;;;;;;5005993;28;20009;-82
2024/02/27 00:48:42;;;;;;;;;;;6.80;1.00;;;;;;5023999;28;19918;-83
2024/02/27 00:51:07;;;;;;;;;;;6.80;1.00;;;;;;5022433;28;19920;-86
2024/02/27 00:53:33;;;;;;;;;;;6.80;1.00;;;;;;5021755;28;19972;-83
2024/02/27 00:55:58;;;;;;;;;;;6.80;1.00;;;;;;5005264;28;19914;-84
2024/02/27 00:58:24;;;;;;;;;;;6.90;1.00;;;;;;5020726;28;19967;-85
2024/02/27 01:00:49;;;;;;;;;;;6.90;1.00;;;;;;5020327;28;19913;-85
2024/02/27 01:03:15;;;;;;;;;;;6.90;1.00;;;;;;5022810;28;19913;-84
2024/02/27 01:05:40;;;;;;;;;;;6.80;1.00;;;;;;5005361;28;19918;-86
2024/02/27 01:08:05;;;;;;;;;;;6.80;1.00;;;;;;5023045;28;19917;-84
2024/02/27 01:10:31;;;;;;;;;;;6.80;1.00;;;;;;5023169;28;19936;-84
2024/02/27 01:12:56;;;;;;;;;;;6.80;1.00;;;;;;5019721;28;19961;-83
2024/02/27 01:15:22;;;;;;;;;;;6.70;1.00;;;;;;5020577;28;19914;-85
2024/02/27 01:17:47;;;;;;;;;;;6.70;1.00;;;;;;5006317;28;20005;-83
2024/02/27 01:20:13;;;;;;;;;;;6.70;1.00;;;;;;5023193;28;19921;-83
2024/02/27 01:22:38;;;;;;;;;;;6.70;1.00;;;;;;5017830;28;19940;-82
2024/02/27 01:25:04;;;;;;;;;;;6.60;1.00;;;;;;5014958;28;20388;-83
2024/02/27 01:27:29;;;;;;;;;;;6.60;1.00;;;;;;4997453;28;19913;-82
2024/02/27 01:29:56;;;;;;;;;;;6.70;1.00;;;;;;5013009;28;19921;-82
2024/02/27 01:32:21;;;;;;;;;;;6.60;1.00;;;;;;5014323;28;19913;-82
2024/02/27 01:34:47;;;;;;;;;;;6.60;1.00;;;;;;5016431;28;19917;-82
2024/02/27 01:37:12;;;;;;;;;;;6.70;1.00;;;;;;5018187;28;19961;-83
2024/02/27 01:39:38;;;;;;;;;;;6.70;1.00;;;;;;5000843;28;19985;-84
2024/02/27 01:42:04;;;;;;;;;;;6.70;1.00;;;;;;5018254;28;19913;-83
2024/02/27 01:44:29;;;;;;;;;;;6.60;1.00;;;;;;5018057;28;21594;-83
2024/02/27 01:46:55;;;;;;;;;;;6.60;1.00;;;;;;5015174;28;19914;-83
2024/02/27 01:49:21;;;;;;;;;;;6.60;1.00;;;;;;5015766;28;20391;-82
2024/02/27 01:51:47;;;;;;;;;;;6.60;1.00;;;;;;5018783;28;19913;-83
2024/02/27 01:54:14;;;;;;;;;;;6.60;1.00;;;;;;5015904;28;20395;-83
2024/02/27 01:56:40;;;;;;;;;;;6.60;1.00;;;;;;5018419;28;19961;-83
2024/02/27 01:59:06;;;;;;;;;;;6.60;1.00;;;;;;5016943;28;20291;-81
2024/02/27 02:01:33;;;;;;;;;;;6.70;1.00;;;;;;4997752;28;19936;-83
2024/02/27 02:03:58;;;;;;;;;;;6.70;1.00;;;;;;4997731;28;19921;-82
2024/02/27 02:06:25;;;;;;;;;;;6.70;1.00;;;;;;5017459;28;19917;-83
2024/02/27 02:08:50;;;;;;;;;;;6.70;1.00;;;;;;5022854;28;20029;-84
2024/02/27 02:11:16;;;;;;;;;;;6.70;1.00;;;;;;5005037;28;19921;-84
2024/02/27 02:13:41;;;;;;;;;;;6.70;1.00;;;;;;5022217;28;19914;-85
2024/02/27 02:16:07;;;;;;;;;;;6.70;1.00;;;;;;5022396;28;19920;-84
2024/02/27 02:18:32;;;;;;;;;;;6.70;1.00;;;;;;5019061;28;20010;-84
2024/02/27 02:21:01;;;;;;;;;;;6.70;1.00;;;;;;5019823;28;19913;-84
2024/02/27 02:23:26;;;;;;;;;;;6.60;1.00;;;;;;5022323;28;19913;-83
2024/02/27 02:25:52;;;;;;;;;;;6.60;1.00;;;;;;5022111;28;19932;-85
2024/02/27 02:28:17;;;;;;;;;;;6.60;1.00;;;;;;5022949;28;20000;-82
2024/02/27 02:30:43;;;;;;;;;;;6.60;1.00;;;;;;5022972;28;19935;-83
2024/02/27 02:33:10;;;;;;;;;;;6.60;1.00;;;;;;5000174;28;19997;-83
2024/02/27 02:35:35;;;;;;;;;;;6.70;1.00;;;;;;5019477;28;19914;-85
2024/02/27 02:38:01;;;;;;;;;;;6.70;1.00;;;;;;5020931;28;19920;-84
2024/02/27 02:40:26;;;;;;;;;;;6.70;1.00;;;;;;5021763;28;19936;-84
2024/02/27 02:42:52;;;;;;;;;;;6.70;1.00;;;;;;5022605;28;19921;-85
2024/02/27 02:45:17;;;;;;;;;;;6.60;1.00;;;;;;5004477;28;19917;-84
2024/02/27 02:47:43;;;;;;;;;;;6.70;1.00;;;;;;5022307;28;19960;-84
2024/02/27 02:50:08;;;;;;;;;;;6.70;1.00;;;;;;5018909;28;19928;-83
2024/02/27 02:52:34;;;;;;;;;;;6.70;1.00;;;;;;5021785;28;19913;-83
2024/02/27 02:55:02;;;;;;;;;;;6.70;1.00;;;;;;5018632;28;20020;-83
2024/02/27 02:57:28;;;;;;;;;;;6.70;1.00;;;;;;4999422;28;20001;-83
2024/02/27 02:59:54;;;;;;;;;;;6.70;1.00;;;;;;5017218;28;19940;-83
2024/02/27 03:02:20;;;;;;;;;;;6.80;1.00;;;;;;4991428;28;19918;-85
2024/02/27 03:04:45;;;;;;;;;;;6.80;1.00;;;;;;5017079;28;19920;-82
2024/02/27 03:07:11;;;;;;;;;;;6.80;1.00;;;;;;5014454;28;20415;-83
2024/02/27 03:09:37;;;;;;;;;;;6.80;1.00;;;;;;4999629;28;19932;-85
2024/02/27 03:12:02;;;;;;;;;;;6.70;1.00;;;;;;4999223;28;19920;-84
2024/02/27 03:14:28;;;;;;;;;;;6.70;1.00;;;;;;5016129;28;19913;-83
2024/02/27 03:16:53;;;;;;;;;;;6.70;1.00;;;;;;5017398;28;20672;-83
2024/02/27 03:19:19;;;;;;;;;;;6.70;1.00;;;;;;5017175;28;19913;-83
2024/02/27 03:21:44;;;;;;;;;;;6.70;1.00;;;;;;5016508;28;19913;-82
2024/02/27 03:24:10;;;;;;;;;;;6.70;1.00;;;;;;5011861;28;19924;-82
2024/02/27 03:26:36;;;;;;;;;;;6.60;1.00;;;;;;5013252;28;19918;-83
2024/02/27 03:29:01;;;;;;;;;;;6.60;1.00;;;;;;5013118;28;19920;-84
2024/02/27 03:31:27;;;;;;;;;;;6.60;1.00;;;;;;5014001;28;20004;-84
2024/02/27 03:33:53;;;;;;;;;;;6.60;1.00;;;;;;4996376;28;20579;-81
2024/02/27 03:36:18;;;;;;;;;;;6.60;1.00;;;;;;4996330;28;19920;-83
2024/02/27 03:38:44;;;;;;;;;;;6.60;1.00;;;;;;4996030;28;19953;-84
2024/02/27 03:41:13;;;;;;;;;;;6.60;1.00;;;;;;5022211;28;19918;-84
2024/02/27 03:43:40;;;;;;;;;;;6.60;1.00;;;;;;5020825;28;20030;-84
2024/02/27 03:46:05;;;;;;;;;;;6.60;1.00;;;;;;5002500;28;19917;-83
2024/02/27 03:48:30;;;;;;;;;;;6.50;1.00;;;;;;5020352;28;19921;-84
2024/02/27 03:50:56;;;;;;;;;;;6.50;1.00;;;;;;5022360;28;20000;-82
2024/02/27 03:53:21;;;;;;;;;;;6.50;1.00;;;;;;5002338;28;20335;-82
2024/02/27 03:55:47;;;;;;;;;;;6.50;1.00;;;;;;5018744;28;19941;-84
2024/02/27 03:58:12;;;;;;;;;;;6.50;1.00;;;;;;5017553;28;19913;-83
2024/02/27 04:00:38;;;;;;;;;;;6.50;1.00;;;;;;5001392;28;19948;-84
2024/02/27 04:03:03;;;;;;;;;;;6.50;1.00;;;;;;5018312;28;19975;-83
2024/02/27 04:05:29;;;;;;;;;;;6.40;1.00;;;;;;5021842;28;19924;-82
2024/02/27 04:07:54;;;;;;;;;;;6.40;1.00;;;;;;5003924;28;19913;-83
2024/02/27 04:10:20;;;;;;;;;;;6.40;1.00;;;;;;5021599;28;20012;-82
2024/02/27 04:12:45;;;;;;;;;;;6.40;1.00;;;;;;5020178;28;20025;-85
2024/02/27 04:15:11;;;;;;;;;;;6.40;1.00;;;;;;5022160;28;19933;-83
2024/02/27 04:17:36;;;;;;;;;;;6.40;1.00;;;;;;5021744;28;19914;-84
2024/02/27 04:20:02;;;;;;;;;;;6.40;1.00;;;;;;5022481;28;19913;-83
2024/02/27 04:22:27;;;;;;;;;;;6.40;1.00;;;;;;5018654;28;19997;-83
2024/02/27 04:24:52;;;;;;;;;;;6.30;1.00;;;;;;5000901;28;20267;-83
2024/02/27 04:27:18;;;;;;;;;;;6.30;1.00;;;;;;5016422;28;19995;-84
2024/02/27 04:29:43;;;;;;;;;;;6.40;1.00;;;;;;5016384;28;19921;-82
2024/02/27 04:32:10;;;;;;;;;;;6.30;1.00;;;;;;5002870;28;19914;-83
2024/02/27 04:34:36;;;;;;;;;;;6.30;1.00;;;;;;4999286;28;19936;-80
2024/02/27 04:37:01;;;;;;;;;;;6.40;1.00;;;;;;5015625;28;19913;-83
2024/02/27 04:39:27;;;;;;;;;;;6.40;1.00;;;;;;5016743;28;19913;-84
2024/02/27 04:41:52;;;;;;;;;;;6.30;1.00;;;;;;5013109;28;19924;-82
2024/02/27 04:44:18;;;;;;;;;;;6.30;1.00;;;;;;5016219;28;19930;-83
2024/02/27 04:46:44;;;;;;;;;;;6.20;1.00;;;;;;5015369;28;19925;-82
2024/02/27 04:49:09;;;;;;;;;;;6.20;1.00;;;;;;4998090;28;19918;-83
2024/02/27 04:51:35;;;;;;;;;;;6.20;1.00;;;;;;5014387;28;19921;-83
2024/02/27 04:54:01;;;;;;;;;;;6.10;1.00;;;;;;5015766;28;19914;-83
2024/02/27 04:56:26;;;;;;;;;;;6.00;1.00;;;;;;5015488;28;19920;-85
2024/02/27 04:58:52;;;;;;;;;;;6.00;1.00;;;;;;5015138;28;19925;-83
2024/02/27 05:01:17;;;;;;;;;;;6.00;1.00;;;;;;5015601;28;20001;-83
2024/02/27 05:03:43;;;;;;;;;;;5.90;1.00;;;;;;5014475;28;19913;-82
2024/02/27 05:06:08;;;;;;;;;;;5.90;1.00;;;;;;5015454;28;19918;-83
2024/02/27 05:08:34;;;;;;;;;;;6.00;1.00;;;;;;5015186;28;19960;-82
2024/02/27 05:11:00;;;;;;;;;;;6.00;1.00;;;;;;5020493;28;19913;-83
2024/02/27 05:13:26;;;;;;;;;;;5.90;1.00;;;;;;5022944;28;20295;-84
2024/02/27 05:15:51;;;;;;;;;;;6.00;1.00;;;;;;5024520;28;19914;-83
2024/02/27 05:18:17;;;;;;;;;;;6.00;1.00;;;;;;5005680;28;19913;-83
2024/02/27 05:20:42;;;;;;;;;;;6.00;1.00;;;;;;5003856;28;19921;-84
2024/02/27 05:23:08;;;;;;;;;;;6.00;1.00;;;;;;5021751;28;20198;-82
2024/02/27 05:25:33;;;;;;;;;;;5.90;1.00;;;;;;5022001;28;19956;-83
2024/02/27 05:27:59;;;;;;;;;;;6.00;1.00;;;;;;5021334;28;19913;-83
2024/02/27 05:30:24;;;;;;;;;;;5.90;1.00;;;;;;5020860;28;19913;-83
2024/02/27 05:32:50;;;;;;;;;;;5.90;1.00;;;;;;5019748;28;19917;-84
2024/02/27 05:35:15;;;;;;;;;;;5.90;1.00;;;;;;5000193;28;19917;-84
2024/02/27 05:37:41;;;;;;;;;;;6.00;1.00;;;;;;5019855;28;19976;-83
2024/02/27 05:40:09;;;;;;;;;;;6.00;1.00;;;;;;5020139;28;19913;-85
2024/02/27 05:42:34;;;;;;;;;;;6.00;1.00;;;;;;5022587;28;19914;-84
2024/02/27 05:45:00;;;;;;;;;;;6.00;1.00;;;;;;5022277;28;19918;-84
2024/02/27 05:47:26;;;;;;;;;;;6.00;1.00;;;;;;5024040;28;19914;-84
2024/02/27 05:49:52;;;;;;;;;;;6.00;1.00;;;;;;5024034;28;20410;-82
2024/02/27 05:52:18;;;;;;;;;;;6.10;1.00;;;;;;5004879;28;19921;-83
2024/02/27 05:54:43;;;;;;;;;;;6.10;1.00;;;;;;5021614;28;19921;-83
2024/02/27 05:57:09;;;;;;;;;;;6.10;1.00;;;;;;5016959;28;19961;-83
2024/02/27 05:59:35;;;;;;;;;;;6.10;1.00;;;;;;5019020;28;19913;-81
2024/02/27 06:02:00;;;;;;;;;;;6.00;1.00;;;;;;5001336;28;19913;-82
2024/02/27 06:04:26;;;;;;;;;;;6.00;1.00;;;;;;5019068;28;20363;-83
2024/02/27 06:06:51;;;;;;;;;;;6.00;1.00;;;;;;5019017;28;19917;-81
2024/02/27 06:09:17;;;;;;;;;;;6.00;1.00;;;;;;5019956;28;19913;-83
2024/02/27 06:11:42;;;;;;;;;;;6.00;1.00;;;;;;4997230;28;19917;-84
2024/02/27 06:14:08;;;;;;;;;;;6.00;1.00;;;;;;5018469;28;19913;-82
2024/02/27 06:16:33;;;;;;;;;;;6.00;1.00;;;;;;5020283;28;19914;-83
2024/02/27 06:18:59;;;;;;;;;;;6.10;1.00;;;;;;5019404;28;20402;-82
2024/02/27 06:24:09;;;;;;;;;;;6.10;1.00;;;;;;5019595;28;19981;-83
2024/02/27 06:26:34;;;;;;;;;;;6.10;1.00;;;;;;5017089;28;19918;-83
2024/02/27 06:29:00;;;;;;;;;;;6.10;1.00;;;;;;5016427;28;19917;-83
2024/02/27 06:31:26;;;;;;;;;;;6.10;1.00;;;;;;5018034;28;19921;-83
2024/02/27 06:33:51;;;;;;;;;;;6.10;1.00;;;;;;5019047;28;19913;-82
2024/02/27 06:36:17;;;;;;;;;;;6.10;1.00;;;;;;5018532;28;20362;-83
2024/02/27 06:38:42;;;;;;;;;;;6.10;1.00;;;;;;5000980;28;19924;-83
2024/02/27 06:41:08;;;;;;;;;;;6.10;1.00;;;;;;5018400;28;19936;-82
2024/02/27 06:43:33;;;;;;;;;;;6.20;1.00;;;;;;5022616;28;20324;-83
2024/02/27 06:45:59;;;;;;;;;;;6.20;1.00;;;;;;5023061;28;19917;-82
2024/02/27 06:48:28;;;;;;;;;;;6.20;1.00;;;;;;5024335;28;19913;-83
2024/02/27 06:50:54;;;;;;;;;;;6.20;1.00;;;;;;5005234;28;19913;-83
2024/02/27 06:53:21;;;;;;;;;;;6.30;1.00;;;;;;5007398;28;19913;-83
2024/02/27 06:55:48;;;;;;;;;;;6.30;1.00;;;;;;5005412;28;19914;-83
2024/02/27 06:58:13;;;;;;;;;;;6.30;1.00;;;;;;5003851;28;20383;-84
2024/02/27 07:00:39;;;;;;;;;;;6.30;1.00;;;;;;5014363;28;19913;-82
2024/02/27 07:03:04;;;;;;;;;;;6.40;1.00;;;;;;5001743;28;19913;-83
2024/02/27 07:05:30;;;;;;;;;;;6.50;1.00;;;;;;5018920;28;19925;-82
2024/02/27 07:07:55;;;;;;;;;;;6.60;1.00;;;;;;5017281;28;20039;-83
2024/02/27 07:10:21;;;;;;;;;;;6.70;1.00;;;;;;5017684;28;20052;-82
2024/02/27 07:12:46;;;;;;;;;;;6.80;1.00;;;;;;5020044;28;19913;-83
2024/02/27 07:15:12;;;;;;;;;;;6.90;1.00;;;;;;5017233;28;19940;-82
2024/02/27 07:17:37;;;;;;;;;;;7.10;1.00;;;;;;5018800;28;20391;-81
2024/02/27 07:20:04;;;;;;;;;;;7.20;1.00;;;;;;5016475;28;19937;-83
2024/02/27 07:22:32;;;;;;;;;;;7.40;1.00;;;;;;5013296;28;19918;-83
2024/02/27 07:24:57;;;;;;;;;;;7.50;1.00;;;;;;5015100;28;19976;-83
2024/02/27 07:27:23;;;;;;;;;;;7.80;1.00;;;;;;5014477;28;19948;-81
2024/02/27 07:29:48;;;;;;;;;;;8.00;99.90;;;;;;4991917;28;19917;-81
2024/02/27 07:32:14;;;;;;;;;;;8.20;99.90;;;;;;4992313;28;20004;-81
2024/02/27 07:34:42;;;;;;;;;;;8.40;99.90;;;;;;5009048;28;19950;-82
2024/02/27 07:37:09;;;;;;;;;;;8.40;99.90;;;;;;4998810;28;19913;-82
2024/02/27 07:39:34;;;;;;;;;;;8.50;97.90;;;;;;4998161;28;19921;-82
2024/02/27 07:41:59;;;;;;;;;;;8.50;12.70;;;;;;5015905;28;20021;-81
2024/02/27 07:44:25;;;;;;;;;;;8.70;1.00;;;;;;5014273;28;20313;-81
2024/02/27 07:46:50;;;;;;;;;;;8.70;1.00;;;;;;4997323;28;19918;-82
2024/02/27 07:49:16;;;;;;;;;;;8.90;99.90;;;;;;5011379;28;19917;-82
2024/02/27 07:51:41;;;;;;;;;;;9.00;1.00;;;;;;5022155;28;19918;-81
2024/02/27 07:54:07;;;;;;;;;;;9.00;99.90;;;;;;4999383;28;20004;-81
2024/02/27 07:56:33;;;;;;;;;;;8.90;1.00;;;;;;5013199;28;19928;-81
2024/02/27 07:58:59;;;;;;;;;;;8.90;1.00;;;;;;5015011;28;19913;-82
2024/02/27 08:01:25;;;;;;;;;;;8.90;1.00;;;;;;5017442;28;20303;-80
2024/02/27 08:03:51;;;;;;;;;;;8.70;99.90;;;;;;5014049;28;19913;-81
2024/02/27 08:06:16;;;;;;;;;;;8.70;1.00;;;;;;5012901;28;19917;-81
2024/02/27 08:08:42;;;;;;;;;;;8.70;1.00;;;;;;5013707;28;19920;-82
2024/02/27 08:11:07;;;;;;;;;;;8.60;1.00;;;;;;5014603;28;19914;-82
2024/02/27 08:13:33;;;;;;;;;;;8.60;1.00;;;;;;5018913;28;19913;-82
2024/02/27 08:15:58;;;;;;;;;;;8.60;1.00;;;;;;5018996;28;19914;-81
2024/02/27 08:18:24;;;;;;;;;;;8.60;1.00;;;;;;5019959;28;19920;-82
2024/02/27 08:20:50;;;;;;;;;;;8.60;1.00;;;;;;5017329;28;20004;-82
2024/02/27 08:23:15;;;;;;;;;;;8.60;99.90;;;;;;5022863;28;19929;-82
2024/02/27 08:25:41;;;;;;;;;;;8.60;99.90;;;;;;5023337;28;19913;-81
2024/02/27 08:28:06;;;;;;;;;;;8.60;1.00;;;;;;5020469;28;19975;-83
2024/02/27 08:30:32;;;;;;;;;;;8.50;1.00;;;;;;5022331;28;19925;-81
2024/02/27 08:32:58;;;;;;;;;;;8.50;1.00;;;;;;5004317;28;19913;-82
2024/02/27 08:35:23;;;;;;;;;;;8.50;1.00;;;;;;5008659;28;19921;-82
2024/02/27 08:37:49;;;;;;;;;;;8.50;99.90;;;;;;5025113;28;19968;-82
2024/02/27 08:40:14;;;;;;;;;;;8.60;99.90;;;;;;5009848;28;19918;-81
2024/02/27 08:42:40;;;;;;;;;;;8.70;99.90;;;;;;4999252;28;19928;-82
2024/02/27 08:45:06;;;;;;;;;;;8.90;26.70;;;;;;5019560;28;19976;-83
2024/02/27 08:47:32;;;;;;;;;;;9.20;99.90;;;;;;5002086;28;20014;-83
2024/02/27 08:49:57;;;;;;;;;;;9.50;99.90;;;;;;5019085;28;19918;-83
2024/02/27 08:52:23;;;;;;;;;;;10.10;99.90;;;;;;5004547;28;19913;-82
2024/02/27 08:54:48;;;;;;;;;;;10.50;99.90;;;;;;5021567;28;19989;-82
2024/02/27 08:57:14;;;;;;;;;;;10.70;1.00;;;;;;5021420;28;19910;-83
2024/02/27 08:59:39;;;;;;;;;;;10.80;1.00;;;;;;5025489;28;19910;-83
2024/02/27 09:02:05;;;;;;;;;;;10.90;99.90;;;;;;5015204;28;19940;-83
2024/02/27 09:04:32;;;;;;;;;;;11.10;99.90;;;;;;4994871;28;19971;-83
2024/02/27 09:06:57;;;;;;;;;;;11.40;99.90;;;;;;5017933;28;19932;-83
2024/02/27 09:09:23;;;;;;;;;;;11.60;99.90;;;;;;4999560;28;20004;-82
2024/02/27 09:11:48;;;;;;;;;;;11.70;99.90;;;;;;4997590;28;19913;-83
2024/02/27 09:14:14;;;;;;;;;;;12.00;66.20;;;;;;5017340;28;19948;-84
2024/02/27 09:16:39;;;;;;;;;;;12.50;1.00;;;;;;5019390;28;19921;-83
2024/02/27 09:19:05;;;;;;;;;;;12.90;1.00;;;;;;5014908;28;19929;-81
2024/02/27 09:21:30;;;;;;;;;;;13.20;1.00;;;;;;5015872;28;19913;-83
2024/02/27 09:23:56;;;;;;;;;;;13.70;1.00;;;;;;5016693;28;19913;-83
2024/02/27 09:26:21;;;;;;;;;;;13.50;1.00;;;;;;5015536;28;19921;-82
2024/02/27 09:28:47;;;;;;;;;;;13.40;1.00;;;;;;4999984;28;20039;-82
2024/02/27 09:31:12;;;;;;;;;;;13.40;1.00;;;;;;5020637;28;19980;-83
2024/02/27 09:33:38;;;;;;;;;;;13.20;1.00;;;;;;5018627;28;19916;-83
2024/02/27 09:36:03;;;;;;;;;;;12.70;1.00;;;;;;5016190;28;20291;-82
2024/02/27 09:38:29;;;;;;;;;;;12.60;1.00;;;;;;5012796;28;19913;-82
2024/02/27 09:40:59;;;;;;;;;;;12.60;1.00;;;;;;5016149;28;19913;-81
2024/02/27 09:43:28;;;;;;;;;;;12.60;1.00;;;;;;5001046;28;20091;-83
2024/02/27 09:45:54;;;;;;;;;;;12.50;1.00;;;;;;5019615;28;19938;-83
2024/02/27 09:48:20;;;;;;;;;;;12.40;1.00;;;;;;5019791;28;19961;-83
2024/02/27 09:50:47;;;;;;;;;;;12.30;1.00;;;;;;5021429;28;20032;-83
2024/02/27 09:53:13;;;;;;;;;;;12.10;1.00;;;;;;5015281;28;19914;-82
2024/02/27 09:55:39;;;;;;;;;;;11.90;1.00;;;;;;5002571;28;19921;-83
2024/02/27 09:58:07;;;;;;;;;;;11.70;1.00;;;;;;5020262;28;19917;-82
2024/02/27 10:00:32;;;;;;;;;;;11.50;1.00;;;;;;5020142;28;19913;-81
2024/02/27 10:02:58;;;;;;;;;;;11.30;1.00;;;;;;5019630;28;19983;-82
2024/02/27 10:05:23;;;;;;;;;;;11.20;1.00;;;;;;5020058;28;19996;-82
2024/02/27 10:07:49;;;;;;;;;;;11.10;1.00;;;;;;5021186;28;19920;-82
2024/02/27 10:10:16;;;;;;;;;;;11.10;1.00;;;;;;5001070;28;19944;-82
2024/02/27 10:12:41;;;;;;;;;;;11.20;1.00;;;;;;5016382;28;19929;-81
2024/02/27 10:15:07;;;;;;;;;;;11.30;1.00;;;;;;5019631;28;19932;-81
2024/02/27 10:17:35;;;;;;;;;;;11.50;1.00;;;;;;5016351;28;19963;-81
2024/02/27 10:20:04;;;;;;;;;;;11.70;1.00;;;;;;4997283;28;20418;-82
2024/02/27 10:22:31;;;;;;;;;;;11.90;1.00;;;;;;5018883;28;19914;-82
2024/02/27 10:25:16;;;;;;;;;;;12.20;1.00;;;;;;4994671;28;19918;-82
2024/02/27 10:27:42;;;;;;;;;;;12.50;1.00;;;;;;5002125;28;19952;-82
2024/02/27 10:30:11;;;;;;;;;;;12.90;1.00;;;;;;5002217;28;19972;-82
2024/02/27 10:32:36;;;;;;;;;;;13.20;1.00;;;;;;5011548;28;19921;-81
2024/02/27 10:35:03;;;;;;;;;;;13.50;1.00;;;;;;5014740;28;19914;-82
2024/02/27 10:37:31;;;;;;;;;;;13.80;1.00;;;;;;4997239;28;19914;-82
2024/02/27 10:40:00;;;;;;;;;;;13.90;1.00;;;;;;4997643;28;19996;-83
2024/02/27 10:42:29;;;;;;;;;;;13.90;1.00;;;;;;5015593;28;19909;-81
2024/02/27 10:44:56;;;;;;;;;;;14.20;1.00;;;;;;5009353;28;19973;-83
2024/02/27 10:47:24;;;;;;;;;;;14.80;1.00;;;;;;5014671;28;19913;-81
2024/02/27 10:49:50;;;;;;;;;;;15.40;1.00;;;;;;5014894;28;19979;-82
2024/02/27 10:52:20;;;;;;;;;;;16.00;1.00;;;;;;5014299;28;19913;-83
2024/02/27 10:54:47;;;;;;;;;;;16.10;99.90;;;;;;5014377;28;19913;-83
2024/02/27 10:57:13;;;;;;;;;;;15.90;99.90;;;;;;5014377;28;20387;-82
2024/02/27 10:59:39;;;;;;;;;;;15.60;99.90;;;;;;5016002;28;19916;-82
2024/02/27 11:02:10;;;;;;;;;;;15.20;99.90;;;;;;5000888;28;19918;-83
2024/02/27 11:04:37;;;;;;;;;;;14.90;99.90;;;;;;5014286;28;19929;-82
2024/02/27 11:07:03;;;;;;;;;;;14.80;99.90;;;;;;5012368;28;19975;-82
2024/02/27 11:09:29;;;;;;;;;;;14.70;99.90;;;;;;4997181;28;20327;-83
2024/02/27 11:11:55;;;;;;;;;;;14.40;99.90;;;;;;5014217;28;19916;-81
2024/02/27 11:14:23;;;;;;;;;;;14.20;99.90;;;;;;5014640;28;19920;-82
2024/02/27 11:16:50;;;;;;;;;;;14.10;99.90;;;;;;5014037;28;20298;-82
2024/02/27 11:19:22;;;;;;;;;;;14.10;99.90;;;;;;5018372;28;19917;-82
2024/02/27 11:21:48;;;;;;;;;;;13.90;99.90;;;;;;5013297;28;20036;-82
2024/02/27 11:24:14;;;;;;;;;;;13.90;99.90;;;;;;4999057;28;19927;-82
2024/02/27 11:26:40;;;;;;;;;;;13.90;99.90;;;;;;5016433;28;19929;-83
2024/02/27 11:29:05;;;;;;;;;;;13.90;99.90;;;;;;5016370;28;19917;-83
2024/02/27 11:31:31;;;;;;;;;;;13.80;99.90;;;;;;5020407;28;20410;-82
2024/02/27 11:33:58;;;;;;;;;;;13.60;99.90;;;;;;5011218;28;19914;-82
2024/02/27 11:36:23;;;;;;;;;;;13.50;99.90;;;;;;5016660;28;19913;-82
2024/02/27 11:38:49;;;;;;;;;;;13.30;99.90;;;;;;5000797;28;19925;-82
2024/02/27 11:41:16;;;;;;;;;;;13.10;99.90;;;;;;5001878;28;19913;-83
2024/02/27 11:43:43;;;;;;;;;;;12.90;99.90;;;;;;5018728;28;20402;-83
2024/02/27 11:46:27;;;;;;;;;;;12.70;99.90;;;;;;5017313;28;20342;-83
2024/02/27 11:48:53;;;;;;;;;;;12.50;99.90;;;;;;5017380;28;19924;-83
2024/02/27 11:51:19;;;;;;;;;;;12.30;1.00;;;;;;5016747;28;19980;-84
2024/02/27 11:53:45;;;;;;;;;;;12.30;1.00;;;;;;5001233;28;19913;-84
2024/02/27 11:56:10;;;;;;;;;;;12.20;1.00;;;;;;5006332;28;19936;-82
2024/02/27 11:58:36;;;;;;;;;;;12.00;1.00;;;;;;4990928;28;19977;-84
2024/02/27 12:01:03;;;;;;;;;;;12.00;1.00;;;;;;4999033;28;19918;-83
2024/02/27 12:03:28;;;;;;;;;;;12.00;1.00;;;;;;5002414;28;19977;-82
2024/02/27 12:06:03;;;;;;;;;;;12.20;1.00;;;;;;4995701;28;20020;-84
2024/02/27 12:08:29;;;;;;;;;;;12.30;1.00;;;;;;4995049;28;20016;-84
2024/02/27 12:10:54;;;;;;;;;;;12.40;1.00;;;;;;4986735;28;19960;-82
2024/02/27 12:13:20;;;;;;;;;;;12.50;1.00;;;;;;4994855;28;19920;-83
2024/02/27 12:15:53;;;;;;;;;;;12.70;1.00;;;;;;4987995;28;20435;-84
2024/02/27 12:18:19;;;;;;;;;;;12.90;1.00;;;;;;4995138;28;19913;-82
2024/02/27 12:20:48;;;;;;;;;;;12.90;1.00;;;;;;4994525;28;20749;-83
2024/02/27 12:23:14;;;;;;;;;;;13.00;1.00;;;;;;4997201;28;19913;-83
2024/02/27 12:25:43;;;;;;;;;;;13.00;1.00;;;;;;4997195;28;19932;-82
2024/02/27 12:28:08;;;;;;;;;;;13.00;1.00;;;;;;4995903;28;19920;-83
2024/02/27 12:30:34;;;;;;;;;;;12.90;1.00;;;;;;4981177;28;19913;-82
2024/02/27 12:32:59;;;;;;;;;;;12.80;1.00;;;;;;4997367;28;19914;-83
2024/02/27 12:35:26;;;;;;;;;;;12.80;1.00;;;;;;4999223;28;19917;-84
2024/02/27 12:37:52;;;;;;;;;;;12.70;99.90;;;;;;5000153;28;19918;-82
2024/02/27 12:40:20;;;;;;;;;;;12.50;1.00;;;;;;4997847;28;19913;-82
2024/02/27 12:42:47;;;;;;;;;;;12.30;1.00;;;;;;4997504;28;19925;-82
2024/02/27 12:45:14;;;;;;;;;;;12.30;1.00;;;;;;4998650;28;20435;-82
2024/02/27 12:47:40;;;;;;;;;;;12.10;1.00;;;;;;4984957;28;19986;-84
2024/02/27 12:50:09;;;;;;;;;;;12.00;1.00;;;;;;5002580;28;19948;-82
2024/02/27 12:52:35;;;;;;;;;;;11.90;1.00;;;;;;5003883;28;20402;-83
2024/02/27 12:55:01;;;;;;;;;;;11.80;1.00;;;;;;5003166;28;19957;-84
2024/02/27 12:57:26;;;;;;;;;;;11.80;1.00;;;;;;5002347;28;20540;-82
2024/02/27 12:59:53;;;;;;;;;;;11.70;1.00;;;;;;5001518;28;19971;-83
2024/02/27 13:02:18;;;;;;;;;;;11.70;1.00;;;;;;5002323;28;20008;-84
2024/02/27 13:04:45;;;;;;;;;;;11.70;1.00;;;;;;5000721;28;19949;-84
2024/02/27 13:07:11;;;;;;;;;;;11.80;1.00;;;;;;4998528;28;19917;-84
2024/02/27 13:09:39;;;;;;;;;;;11.70;1.00;;;;;;5003459;28;19920;-84
2024/02/27 13:12:06;;;;;;;;;;;11.80;1.00;;;;;;4986388;28;19918;-83
2024/02/27 13:14:32;;;;;;;;;;;11.80;1.00;;;;;;4991877;28;19925;-82
2024/02/27 13:16:57;;;;;;;;;;;12.00;1.00;;;;;;5011915;28;19914;-82
2024/02/27 13:19:23;;;;;;;;;;;12.00;1.00;;;;;;5009015;28;19914;-84
2024/02/27 13:21:58;;;;;;;;;;;12.10;1.00;;;;;;5013294;28;20008;-82
2024/02/27 13:24:24;;;;;;;;;;;12.20;1.00;;;;;;5008781;28;19944;-82
2024/02/27 13:26:50;;;;;;;;;;;12.30;1.00;;;;;;5006674;28;19917;-82
2024/02/27 13:29:15;;;;;;;;;;;12.20;1.00;;;;;;5009476;28;20730;-83
2024/02/27 13:31:41;;;;;;;;;;;12.30;1.00;;;;;;5010419;28;19953;-84
2024/02/27 13:34:06;;;;;;;;;;;12.30;1.00;;;;;;5006111;28;19913;-83
2024/02/27 13:36:32;;;;;;;;;;;12.30;1.00;;;;;;5010131;28;19913;-84
2024/02/27 13:38:57;;;;;;;;;;;12.40;1.00;;;;;;5003239;28;20004;-84
2024/02/27 13:41:23;;;;;;;;;;;12.50;1.00;;;;;;5004613;28;19924;-82
2024/02/27 13:43:48;;;;;;;;;;;12.50;1.00;;;;;;5002096;28;19922;-83
2024/02/27 13:46:16;;;;;;;;;;;12.50;1.00;;;;;;5001956;28;20998;-82
2024/02/27 13:48:41;;;;;;;;;;;12.50;1.00;;;;;;5002005;28;19921;-83
2024/02/27 13:51:07;;;;;;;;;;;12.50;1.00;;;;;;5000670;28;20411;-82
2024/02/27 13:53:32;;;;;;;;;;;12.40;1.00;;;;;;4983850;28;19968;-84
2024/02/27 13:55:58;;;;;;;;;;;12.40;1.00;;;;;;4994066;28;19914;-82
2024/02/27 13:58:24;;;;;;;;;;;12.40;1.00;;;;;;5006972;28;19914;-84
2024/02/27 14:00:49;;;;;;;;;;;12.30;1.00;;;;;;5006946;28;19922;-84
2024/02/27 14:03:15;;;;;;;;;;;12.30;1.00;;;;;;5005369;28;19948;-81
2024/02/27 14:05:41;;;;;;;;;;;12.20;1.00;;;;;;5004046;28;20109;-82
2024/02/27 14:08:07;;;;;;;;;;;12.10;1.00;;;;;;5004150;28;19913;-82
2024/02/27 14:10:33;;;;;;;;;;;12.10;1.00;;;;;;5000615;28;20389;-83
2024/02/27 14:12:58;;;;;;;;;;;12.00;1.00;;;;;;5000626;28;19914;-82
2024/02/27 14:15:24;;;;;;;;;;;12.00;1.00;;;;;;5003143;28;19935;-83
2024/02/27 14:17:49;;;;;;;;;;;12.00;1.00;;;;;;4998993;28;19922;-83
2024/02/27 14:20:15;;;;;;;;;;;11.80;1.00;;;;;;4998274;28;19917;-82
2024/02/27 14:22:40;;;;;;;;;;;11.60;1.00;;;;;;4999921;28;20379;-82
2024/02/27 14:25:07;;;;;;;;;;;11.40;1.00;;;;;;4997160;28;20286;-83
2024/02/27 14:27:33;;;;;;;;;;;11.40;1.00;;;;;;4981226;28;19921;-82
2024/02/27 14:30:00;;;;;;;;;;;11.30;1.00;;;;;;4999722;28;19918;-82